F/V Roger Christian3 — FUFL — position and weather

sailwx.info

Track history (hours):
 
Tides and Currents Weather Stations Pressure Air Temp Water Temp Dewpoint Dewpoint Depression Visibility Wind Speed Wind Dir Waves Ship Positions

F/V Roger Christian3

Last reported at 2015-Aug-05 09:30 UTC. Time now 2015-Aug-05 10:28 UTC.
Position N 43°01' E 004°20'.

Length 24 m; draft 4 m.

Type: Fishing. MMSI: 228173800.

Date/timePositionNaut miles runAvg speedWind from/ knotsBaromVisibWave heightAir tempDewpointWater temp
2015-Aug-05 09:30N 43°01' E 004°20'4 4.1
2015-Aug-05 08:33N 42°58' E 004°22'4 4.3
2015-Aug-05 07:33N 42°53' E 004°23'4 1.8
2015-Aug-05 05:33N 42°56' E 004°21'34 2.3
2015-Aug-04 15:08N 43°20' E 003°48'712.1
2015-Aug-04 14:33N 43°15' E 003°55'8 7.9
2015-Aug-04 13:29N 43°10' E 004°04'4 4.3
2015-Aug-04 12:33N 43°08' E 004°09'4 4.2
2015-Aug-04 11:33N 43°06' E 004°13'7 3.4
2015-Aug-04 09:28N 43°01' E 004°20'4 4.2
2015-Aug-04 08:29N 42°57' E 004°22'3 1.7
2015-Aug-04 06:33N 42°54' E 004°23'4 4.4
2015-Aug-04 05:33N 42°58' E 004°21'30 7.5
2015-Aug-04 01:33N 43°18' E 003°50'9 8.7
2015-Aug-04 00:33N 43°24' E 003°42'0 0.0
2015-Aug-03 23:33N 43°24' E 003°42'0 0.0
2015-Aug-03 20:22N 43°24' E 003°42'0 0.0
2015-Aug-03 19:30N 43°24' E 003°42'0 0.0
2015-Aug-03 18:33N 43°24' E 003°42'0 0.0
2015-Aug-03 17:33N 43°24' E 003°42'0 0.1
2015-Aug-03 16:33N 43°24' E 003°42'8 8.3
2015-Aug-03 15:32N 43°21' E 003°53'1110.6
2015-Aug-03 14:33N 43°17' E 004°06'3 3.4
2015-Aug-03 13:33N 43°15' E 004°10'4 4.3
2015-Aug-03 12:33N 43°13' E 004°15'3 2.8
2015-Aug-03 11:20N 43°11' E 004°19'2 2.2
2015-Aug-03 10:33N 43°10' E 004°21'4 4.2
2015-Aug-03 09:33N 43°09' E 004°27'4 4.4
2015-Aug-03 08:33N 43°09' E 004°33'4 4.3
2015-Aug-03 07:33N 43°08' E 004°38'1 1.3
2015-Aug-03 06:33N 43°07' E 004°37'4 4.3
2015-Aug-03 05:33N 43°09' E 004°31'8 4.2
2015-Aug-03 03:32N 43°12' E 004°20'1211.3
2015-Aug-03 02:31N 43°17' E 004°06'1211.0
2015-Aug-03 01:23N 43°22' E 003°50'7 1.1
2015-Aug-02 19:20N 43°24' E 003°42'0 0.0
2015-Aug-02 18:28N 43°24' E 003°42'0 0.0
2015-Aug-02 17:32N 43°24' E 003°42'0 0.0
2015-Aug-02 16:33N 43°24' E 003°42'0 0.0
2015-Jul-31 16:07N 43°24' E 003°42'12 7.5
2015-Jul-31 14:33N 43°12' E 003°41'12 0.6
2015-Jul-30 18:31N 43°24' E 003°42'0 0.1
2015-Jul-30 16:17N 43°24' E 003°42'811.0
2015-Jul-30 15:33N 43°21' E 003°52'1111.4
2015-Jul-30 14:33N 43°16' E 004°06'5 4.8
2015-Jul-30 13:33N 43°15' E 004°13'4 4.3
2015-Jul-30 12:33N 43°13' E 004°18'4 4.4
2015-Jul-30 11:33N 43°11' E 004°23'3 3.1
2015-Jul-30 10:33N 43°09' E 004°27'4 4.3
2015-Jul-30 09:33N 43°09' E 004°33'4 4.3
2015-Jul-30 08:33N 43°08' E 004°39'4 4.2
2015-Jul-30 07:33N 43°09' E 004°45'3 3.3
2015-Jul-30 06:33N 43°09' E 004°40'4 4.4
2015-Jul-30 05:33N 43°09' E 004°34'4 4.4
2015-Jul-30 04:33N 43°10' E 004°28'5 4.9
2015-Jul-30 03:33N 43°12' E 004°22'1111.1
2015-Jul-30 02:32N 43°16' E 004°08'20 1.8
2015-Jul-29 15:28N 43°24' E 003°42'9 9.7
2015-Jul-29 14:33N 43°15' E 003°40'6 5.6
2015-Jul-29 13:33N 43°09' E 003°39'14 0.6
2015-Jul-28 15:33N 43°24' E 003°42'1212.1
2015-Jul-28 14:33N 43°16' E 003°55'1110.8
2015-Jul-28 13:33N 43°09' E 004°07'4 3.8
2015-Jul-28 12:32N 43°08' E 004°12'4 4.4
2015-Jul-28 11:32N 43°06' E 004°17'4 4.1
2015-Jul-28 10:33N 43°04' E 004°22'3 3.4
2015-Jul-28 09:33N 43°04' E 004°27'4 4.3
2015-Jul-28 08:33N 43°03' E 004°33'4 4.3
2015-Jul-28 07:33N 43°03' E 004°39'1 1.2
2015-Jul-28 06:33N 43°04' E 004°39'4 4.4
2015-Jul-28 05:33N 43°06' E 004°33'4 4.4
2015-Jul-28 04:33N 43°07' E 004°27'4 4.4
2015-Jul-28 03:33N 43°09' E 004°22'1211.7
2015-Jul-28 02:33N 43°15' E 004°08'1211.8
2015-Jul-28 01:33N 43°20' E 003°54'4 0.4
2015-Jul-27 15:17N 43°22' E 003°49'811.3
2015-Jul-27 14:33N 43°19' E 003°60'9 8.9
2015-Jul-27 13:33N 43°15' E 004°11'4 4.1
2015-Jul-27 12:33N 43°13' E 004°16'4 4.4
2015-Jul-27 11:33N 43°11' E 004°21'3 2.6
2015-Jul-27 10:33N 43°10' E 004°24'4 3.7
2015-Jul-27 09:33N 43°08' E 004°29'4 4.2
2015-Jul-27 08:33N 43°06' E 004°34'4 4.4
2015-Jul-27 07:33N 43°04' E 004°39'3 3.5
2015-Jul-27 06:33N 43°05' E 004°35'4 4.4
2015-Jul-27 05:33N 43°06' E 004°29'4 4.4
2015-Jul-27 04:33N 43°08' E 004°24'5 4.4
2015-Jul-27 03:31N 43°10' E 004°18'1010.2
2015-Jul-27 02:33N 43°15' E 004°06'20 3.3
2015-Jul-26 20:31N 43°24' E 003°42'0 0.0
2015-Jul-26 19:33N 43°24' E 003°42'0 0.0
2015-Jul-26 18:32N 43°24' E 003°42'0 0.0
2015-Jul-26 17:33N 43°24' E 003°42'0 0.0
2015-Jul-26 16:32N 43°24' E 003°42'0 0.0
2015-Jul-26 14:33N 43°24' E 003°42'0 0.0
2015-Jul-26 13:33N 43°24' E 003°42'0 0.0
2015-Jul-26 12:33N 43°24' E 003°42'  
Track history (hours):
 
Tides and Currents Weather Stations Pressure Air Temp Water Temp Dewpoint Dewpoint Depression Visibility Wind Speed Wind Dir Waves Ship Positions

F/V Roger Christian3

Last reported at 2015-Aug-05 09:30 UTC. Time now 2015-Aug-05 10:28 UTC.
Position N 43°01' E 004°20'.

Length 24 m; draft 4 m.

Type: Fishing. MMSI: 228173800.

Date/timePositionNaut miles runAvg speedWind from/ knotsBaromVisibWave heightAir tempDewpointWater temp
2015-Aug-05 09:30N 43°01' E 004°20'4 4.1
2015-Aug-05 08:33N 42°58' E 004°22'4 4.3
2015-Aug-05 07:33N 42°53' E 004°23'4 1.8
2015-Aug-05 05:33N 42°56' E 004°21'34 2.3
2015-Aug-04 15:08N 43°20' E 003°48'712.1
2015-Aug-04 14:33N 43°15' E 003°55'8 7.9
2015-Aug-04 13:29N 43°10' E 004°04'4 4.3
2015-Aug-04 12:33N 43°08' E 004°09'4 4.2
2015-Aug-04 11:33N 43°06' E 004°13'7 3.4
2015-Aug-04 09:28N 43°01' E 004°20'4 4.2
2015-Aug-04 08:29N 42°57' E 004°22'3 1.7
2015-Aug-04 06:33N 42°54' E 004°23'4 4.4
2015-Aug-04 05:33N 42°58' E 004°21'30 7.5
2015-Aug-04 01:33N 43°18' E 003°50'9 8.7
2015-Aug-04 00:33N 43°24' E 003°42'0 0.0
2015-Aug-03 23:33N 43°24' E 003°42'0 0.0
2015-Aug-03 20:22N 43°24' E 003°42'0 0.0
2015-Aug-03 19:30N 43°24' E 003°42'0 0.0
2015-Aug-03 18:33N 43°24' E 003°42'0 0.0
2015-Aug-03 17:33N 43°24' E 003°42'0 0.1
2015-Aug-03 16:33N 43°24' E 003°42'8 8.3
2015-Aug-03 15:32N 43°21' E 003°53'1110.6
2015-Aug-03 14:33N 43°17' E 004°06'3 3.4
2015-Aug-03 13:33N 43°15' E 004°10'4 4.3
2015-Aug-03 12:33N 43°13' E 004°15'3 2.8
2015-Aug-03 11:20N 43°11' E 004°19'2 2.2
2015-Aug-03 10:33N 43°10' E 004°21'4 4.2
2015-Aug-03 09:33N 43°09' E 004°27'4 4.4
2015-Aug-03 08:33N 43°09' E 004°33'4 4.3
2015-Aug-03 07:33N 43°08' E 004°38'1 1.3
2015-Aug-03 06:33N 43°07' E 004°37'4 4.3
2015-Aug-03 05:33N 43°09' E 004°31'8 4.2
2015-Aug-03 03:32N 43°12' E 004°20'1211.3
2015-Aug-03 02:31N 43°17' E 004°06'1211.0
2015-Aug-03 01:23N 43°22' E 003°50'7 1.1
2015-Aug-02 19:20N 43°24' E 003°42'0 0.0
2015-Aug-02 18:28N 43°24' E 003°42'0 0.0
2015-Aug-02 17:32N 43°24' E 003°42'0 0.0
2015-Aug-02 16:33N 43°24' E 003°42'0 0.0
2015-Jul-31 16:07N 43°24' E 003°42'12 7.5
2015-Jul-31 14:33N 43°12' E 003°41'12 0.6
2015-Jul-30 18:31N 43°24' E 003°42'0 0.1
2015-Jul-30 16:17N 43°24' E 003°42'811.0
2015-Jul-30 15:33N 43°21' E 003°52'1111.4
2015-Jul-30 14:33N 43°16' E 004°06'5 4.8
2015-Jul-30 13:33N 43°15' E 004°13'4 4.3
2015-Jul-30 12:33N 43°13' E 004°18'4 4.4
2015-Jul-30 11:33N 43°11' E 004°23'3 3.1
2015-Jul-30 10:33N 43°09' E 004°27'4 4.3
2015-Jul-30 09:33N 43°09' E 004°33'4 4.3
2015-Jul-30 08:33N 43°08' E 004°39'4 4.2
2015-Jul-30 07:33N 43°09' E 004°45'3 3.3
2015-Jul-30 06:33N 43°09' E 004°40'4 4.4
2015-Jul-30 05:33N 43°09' E 004°34'4 4.4
2015-Jul-30 04:33N 43°10' E 004°28'5 4.9
2015-Jul-30 03:33N 43°12' E 004°22'1111.1
2015-Jul-30 02:32N 43°16' E 004°08'20 1.8
2015-Jul-29 15:28N 43°24' E 003°42'9 9.7
2015-Jul-29 14:33N 43°15' E 003°40'6 5.6
2015-Jul-29 13:33N 43°09' E 003°39'14 0.6
2015-Jul-28 15:33N 43°24' E 003°42'1212.1
2015-Jul-28 14:33N 43°16' E 003°55'1110.8
2015-Jul-28 13:33N 43°09' E 004°07'4 3.8
2015-Jul-28 12:32N 43°08' E 004°12'4 4.4
2015-Jul-28 11:32N 43°06' E 004°17'4 4.1
2015-Jul-28 10:33N 43°04' E 004°22'3 3.4
2015-Jul-28 09:33N 43°04' E 004°27'4 4.3
2015-Jul-28 08:33N 43°03' E 004°33'4 4.3
2015-Jul-28 07:33N 43°03' E 004°39'1 1.2
2015-Jul-28 06:33N 43°04' E 004°39'4 4.4
2015-Jul-28 05:33N 43°06' E 004°33'4 4.4
2015-Jul-28 04:33N 43°07' E 004°27'4 4.4
2015-Jul-28 03:33N 43°09' E 004°22'1211.7
2015-Jul-28 02:33N 43°15' E 004°08'1211.8
2015-Jul-28 01:33N 43°20' E 003°54'4 0.4
2015-Jul-27 15:17N 43°22' E 003°49'811.3
2015-Jul-27 14:33N 43°19' E 003°60'9 8.9
2015-Jul-27 13:33N 43°15' E 004°11'4 4.1
2015-Jul-27 12:33N 43°13' E 004°16'4 4.4
2015-Jul-27 11:33N 43°11' E 004°21'3 2.6
2015-Jul-27 10:33N 43°10' E 004°24'4 3.7
2015-Jul-27 09:33N 43°08' E 004°29'4 4.2
2015-Jul-27 08:33N 43°06' E 004°34'4 4.4
2015-Jul-27 07:33N 43°04' E 004°39'3 3.5
2015-Jul-27 06:33N 43°05' E 004°35'4 4.4
2015-Jul-27 05:33N 43°06' E 004°29'4 4.4
2015-Jul-27 04:33N 43°08' E 004°24'5 4.4
2015-Jul-27 03:31N 43°10' E 004°18'1010.2
2015-Jul-27 02:33N 43°15' E 004°06'20 3.3
2015-Jul-26 20:31N 43°24' E 003°42'0 0.0
2015-Jul-26 19:33N 43°24' E 003°42'0 0.0
2015-Jul-26 18:32N 43°24' E 003°42'0 0.0
2015-Jul-26 17:33N 43°24' E 003°42'0 0.0
2015-Jul-26 16:32N 43°24' E 003°42'0 0.0
2015-Jul-26 14:33N 43°24' E 003°42'0 0.0
2015-Jul-26 13:33N 43°24' E 003°42'0 0.0
2015-Jul-26 12:33N 43°24' E 003°42'  

Dump ship's entire track history